createdAt,value
2023-05-22T00:01:26.827Z,99.90
2023-05-22T00:04:22.084Z,99.90
2023-05-22T00:06:49.846Z,99.90
2023-05-22T00:09:17.824Z,99.90
2023-05-22T00:11:58.032Z,99.90
2023-05-22T00:14:28.433Z,99.90
2023-05-22T00:16:56.737Z,99.90
2023-05-22T00:19:31.014Z,99.90
2023-05-22T00:21:59.196Z,99.90
2023-05-22T00:24:27.124Z,99.90
2023-05-22T00:26:54.562Z,99.90
2023-05-22T00:29:22.209Z,99.90
2023-05-22T00:31:50.028Z,99.90
2023-05-22T00:34:20.397Z,99.90
2023-05-22T00:36:48.600Z,99.90
2023-05-22T00:39:16.371Z,99.90
2023-05-22T00:42:13.566Z,99.90
2023-05-22T00:44:42.534Z,99.90
2023-05-22T00:47:10.111Z,99.90
2023-05-22T00:49:42.668Z,99.90
2023-05-22T00:52:10.830Z,99.90
2023-05-22T00:54:39.089Z,99.90
2023-05-22T00:57:16.098Z,99.90
2023-05-22T00:59:44.685Z,99.90
2023-05-22T01:02:13.813Z,99.90
2023-05-22T01:04:57.289Z,99.90
2023-05-22T01:07:28.241Z,99.90
2023-05-22T01:09:59.875Z,99.90
2023-05-22T01:13:07.538Z,99.90
2023-05-22T01:15:57.713Z,99.90
2023-05-22T01:18:49.339Z,99.90
2023-05-22T01:21:16.834Z,99.90
2023-05-22T01:28:14.038Z,99.90
2023-05-22T01:31:04.797Z,99.90
2023-05-22T01:33:38.625Z,99.90
2023-05-22T01:36:09.434Z,99.90
2023-05-22T01:38:44.809Z,99.90
2023-05-22T01:41:15.178Z,99.90
2023-05-22T01:43:46.730Z,99.90
2023-05-22T01:46:22.044Z,99.90
2023-05-22T01:48:51.736Z,99.90
2023-05-22T01:52:15.099Z,99.90
2023-05-22T01:55:08.191Z,99.90
2023-05-22T01:58:12.643Z,99.90
2023-05-22T02:00:44.187Z,99.90
2023-05-22T02:03:28.233Z,99.90
2023-05-22T02:05:59.282Z,99.90
2023-05-22T02:08:32.422Z,99.90
2023-05-22T02:11:01.042Z,99.90
2023-05-22T02:13:34.734Z,99.90
2023-05-22T02:16:05.709Z,99.90
2023-05-22T02:18:32.976Z,99.90
2023-05-22T02:21:05.822Z,99.90
2023-05-22T02:23:51.904Z,99.90
2023-05-22T02:26:24.658Z,99.90
2023-05-22T02:28:52.330Z,99.90
2023-05-22T02:31:23.235Z,99.90
2023-05-22T02:33:51.132Z,99.90
2023-05-22T02:36:24.473Z,99.90
2023-05-22T02:39:04.557Z,99.90
2023-05-22T02:41:34.744Z,99.90
2023-05-22T02:44:05.335Z,99.90
2023-05-22T02:46:43.489Z,99.90
2023-05-22T02:49:14.107Z,99.90
2023-05-22T02:51:48.061Z,99.90
2023-05-22T02:54:16.458Z,99.90
2023-05-22T02:56:44.117Z,99.90
2023-05-22T02:59:15.088Z,99.90
2023-05-22T03:01:45.560Z,99.90
2023-05-22T03:04:14.517Z,99.90
2023-05-22T03:06:46.800Z,99.90
2023-05-22T03:09:21.974Z,99.90
2023-05-22T03:11:49.156Z,99.90
2023-05-22T03:14:17.220Z,99.90
2023-05-22T03:16:47.636Z,99.90
2023-05-22T03:19:18.518Z,99.90
2023-05-22T03:21:58.714Z,99.90
2023-05-22T03:24:32.794Z,99.90
2023-05-22T03:27:03.297Z,99.90
2023-05-22T03:29:33.807Z,99.90
2023-05-22T03:32:11.775Z,99.90
2023-05-22T03:34:40.051Z,99.90
2023-05-22T03:37:15.964Z,99.90
2023-05-22T03:39:47.092Z,99.90
2023-05-22T03:42:16.995Z,99.90
2023-05-22T03:44:44.778Z,99.90
2023-05-22T03:47:12.021Z,99.90
2023-05-22T03:49:42.306Z,99.90
2023-05-22T03:52:14.355Z,99.90
2023-05-22T03:54:53.861Z,99.90
2023-05-22T03:57:21.368Z,99.90
2023-05-22T03:59:48.912Z,99.90
2023-05-22T04:02:20.022Z,99.90
2023-05-22T04:04:56.146Z,99.90
2023-05-22T04:07:26.349Z,99.90
2023-05-22T04:09:53.421Z,99.90
2023-05-22T04:12:29.941Z,99.90
2023-05-22T04:14:57.615Z,99.90
2023-05-22T04:17:36.113Z,99.90
2023-05-22T04:20:05.633Z,99.90
2023-05-22T04:22:33.359Z,99.90
2023-05-22T04:25:01.036Z,99.90
2023-05-22T04:27:30.236Z,99.90
2023-05-22T04:30:00.274Z,99.90
2023-05-22T04:32:27.937Z,99.90
2023-05-22T04:34:58.972Z,99.90
2023-05-22T04:37:28.981Z,99.90
2023-05-22T04:39:59.013Z,99.90
2023-05-22T04:42:28.361Z,99.90
2023-05-22T04:44:58.300Z,99.90
2023-05-22T04:47:25.388Z,99.90
2023-05-22T04:49:52.499Z,99.90
2023-05-22T04:52:19.564Z,99.90
2023-05-22T04:54:46.994Z,99.90
2023-05-22T04:57:17.435Z,99.90
2023-05-22T04:59:45.641Z,99.90
2023-05-22T05:02:12.704Z,99.90
2023-05-22T05:04:41.464Z,99.90
2023-05-22T05:07:09.116Z,99.90
2023-05-22T05:09:36.175Z,99.90
2023-05-22T05:12:03.638Z,99.90
2023-05-22T05:14:30.722Z,99.90
2023-05-22T05:16:58.878Z,99.90
2023-05-22T05:19:26.334Z,99.90
2023-05-22T05:21:54.604Z,99.90
2023-05-22T05:24:21.808Z,98.50
2023-05-22T05:26:51.054Z,95.20
2023-05-22T05:29:18.074Z,92.30
2023-05-22T05:31:45.387Z,90.00
2023-05-22T05:34:13.606Z,85.90
2023-05-22T05:36:41.368Z,82.30
2023-05-22T05:39:09.669Z,80.00
2023-05-22T05:41:36.896Z,78.70
2023-05-22T05:44:04.400Z,75.60
2023-05-22T05:46:32.073Z,73.00
2023-05-22T05:48:59.331Z,71.90
2023-05-22T05:51:28.504Z,70.00
2023-05-22T05:53:55.647Z,70.00
2023-05-22T05:56:22.845Z,70.10
2023-05-22T05:58:49.861Z,70.80
2023-05-22T06:01:18.530Z,70.10
2023-05-22T06:03:46.038Z,69.10
2023-05-22T06:06:14.204Z,68.50
2023-05-22T06:08:42.479Z,66.80
2023-05-22T06:11:09.684Z,65.00
2023-05-22T06:13:36.712Z,65.30
2023-05-22T06:16:06.757Z,64.40
2023-05-22T06:18:34.093Z,63.40
2023-05-22T06:21:01.169Z,63.50
2023-05-22T06:23:28.248Z,63.50
2023-05-22T06:25:55.826Z,63.20
2023-05-22T06:28:23.120Z,61.40
2023-05-22T06:30:50.323Z,60.80
2023-05-22T06:33:17.605Z,59.50
2023-05-22T06:35:44.731Z,60.60
2023-05-22T06:38:11.863Z,59.20
2023-05-22T06:40:39.052Z,60.00
2023-05-22T06:43:06.185Z,60.60
2023-05-22T06:45:33.338Z,59.60
2023-05-22T06:48:00.485Z,59.50
2023-05-22T06:50:27.601Z,59.80
2023-05-22T06:52:54.746Z,60.90
2023-05-22T06:55:22.100Z,60.70
2023-05-22T06:57:49.172Z,60.00
2023-05-22T07:00:20.196Z,59.90
2023-05-22T07:02:48.794Z,60.70
2023-05-22T07:05:15.996Z,58.10
2023-05-22T07:07:44.091Z,59.80
2023-05-22T07:10:11.507Z,58.90
2023-05-22T07:12:38.562Z,59.90
2023-05-22T07:15:06.145Z,60.00
2023-05-22T07:17:33.214Z,58.60
2023-05-22T07:20:00.404Z,59.70
2023-05-22T07:22:27.440Z,58.60
2023-05-22T07:24:55.798Z,58.30
2023-05-22T07:27:22.913Z,59.20
2023-05-22T07:29:50.124Z,59.40
2023-05-22T07:32:18.246Z,58.80
2023-05-22T07:34:45.956Z,56.30
2023-05-22T07:37:14.276Z,57.20
2023-05-22T07:39:41.409Z,55.90
2023-05-22T07:42:08.821Z,55.90
2023-05-22T07:44:36.202Z,57.40
2023-05-22T07:47:03.249Z,58.70
2023-05-22T07:49:30.380Z,61.40
2023-05-22T07:51:57.446Z,62.90
2023-05-22T07:54:24.629Z,63.40
2023-05-22T07:56:52.639Z,66.80
2023-05-22T07:59:21.770Z,63.80
2023-05-22T08:01:53.740Z,65.90
2023-05-22T08:04:21.317Z,64.60
2023-05-22T08:06:52.602Z,66.00
2023-05-22T08:09:21.471Z,68.60
2023-05-22T08:11:49.127Z,67.70
2023-05-22T08:14:16.312Z,69.20
2023-05-22T08:16:44.631Z,67.60
2023-05-22T08:19:11.962Z,67.80
2023-05-22T08:21:40.004Z,69.40
2023-05-22T08:24:08.583Z,71.00
2023-05-22T08:26:35.737Z,71.50
2023-05-22T08:29:02.809Z,69.90
2023-05-22T08:31:31.103Z,67.90
2023-05-22T08:34:02.731Z,69.40
2023-05-22T08:36:34.516Z,69.70
2023-05-22T08:39:02.037Z,68.30
2023-05-22T08:41:30.430Z,68.80
2023-05-22T08:43:58.814Z,70.90
2023-05-22T08:46:30.271Z,65.10
2023-05-22T08:48:58.814Z,68.80
2023-05-22T08:51:31.711Z,70.90
2023-05-22T08:54:01.283Z,71.60
2023-05-22T08:56:32.094Z,71.60
2023-05-22T08:59:01.695Z,71.10
2023-05-22T09:01:35.264Z,70.30
2023-05-22T09:04:03.707Z,70.00
2023-05-22T09:06:32.015Z,68.70
2023-05-22T09:09:03.933Z,70.50
2023-05-22T09:11:31.443Z,65.60
2023-05-22T09:14:11.853Z,66.60
2023-05-22T09:16:48.885Z,65.60
2023-05-22T09:19:16.499Z,63.30
2023-05-22T09:21:48.176Z,63.80
2023-05-22T09:24:15.599Z,67.60
2023-05-22T09:26:42.885Z,65.60
2023-05-22T09:29:10.093Z,66.90
2023-05-22T09:31:44.352Z,68.50
2023-05-22T09:34:14.396Z,64.40
2023-05-22T09:36:42.624Z,65.30
2023-05-22T09:39:13.867Z,68.80
2023-05-22T09:41:40.992Z,65.90
2023-05-22T09:44:16.761Z,67.80
2023-05-22T09:46:48.166Z,66.80
2023-05-22T09:49:17.072Z,67.30
2023-05-22T09:51:48.235Z,66.90
2023-05-22T09:54:16.559Z,67.30
2023-05-22T09:56:45.510Z,67.00
2023-05-22T09:59:14.627Z,61.80
2023-05-22T10:01:42.917Z,63.70
2023-05-22T10:04:14.507Z,67.30
2023-05-22T10:06:43.069Z,64.00
2023-05-22T10:09:19.699Z,64.10
2023-05-22T10:11:48.874Z,65.00
2023-05-22T10:14:16.824Z,63.10
2023-05-22T10:16:45.380Z,63.20
2023-05-22T10:19:13.871Z,59.20
2023-05-22T10:21:42.224Z,60.50
2023-05-22T10:24:10.911Z,59.20
2023-05-22T10:26:38.866Z,60.10
2023-05-22T10:29:12.141Z,63.10
2023-05-22T10:31:53.941Z,59.80
2023-05-22T10:34:40.224Z,62.30
2023-05-22T10:37:21.766Z,62.30
2023-05-22T10:40:02.410Z,60.90
2023-05-22T10:42:32.822Z,63.50
2023-05-22T10:45:04.722Z,64.00
2023-05-22T10:47:34.292Z,65.10
2023-05-22T10:50:05.784Z,61.60
2023-05-22T10:52:32.978Z,61.40
2023-05-22T10:55:01.828Z,60.50
2023-05-22T10:57:35.970Z,60.30
2023-05-22T11:00:15.759Z,59.20
2023-05-22T11:02:45.117Z,60.20
2023-05-22T11:05:21.781Z,58.10
2023-05-22T11:07:49.273Z,56.50
2023-05-22T11:10:44.828Z,58.80
2023-05-22T11:13:12.560Z,56.90
2023-05-22T11:15:45.653Z,57.60
2023-05-22T11:18:14.746Z,59.60
2023-05-22T11:20:42.360Z,60.50
2023-05-22T11:23:21.689Z,57.40
2023-05-22T11:25:51.980Z,55.50
2023-05-22T11:28:19.226Z,57.20
2023-05-22T11:30:47.475Z,59.40
2023-05-22T11:33:15.441Z,60.60
2023-05-22T11:35:44.716Z,58.60
2023-05-22T11:38:11.967Z,57.10
2023-05-22T11:40:39.336Z,57.60
2023-05-22T11:43:07.414Z,57.50
2023-05-22T11:45:37.913Z,58.10
2023-05-22T11:48:08.379Z,54.80
2023-05-22T11:53:08.252Z,54.90
2023-05-22T11:55:35.855Z,51.90
2023-05-22T11:58:03.068Z,54.90
2023-05-22T12:00:31.651Z,54.10
2023-05-22T12:02:59.522Z,50.80
2023-05-22T12:05:26.706Z,51.20
2023-05-22T12:07:53.949Z,54.60
2023-05-22T12:10:21.011Z,54.50
2023-05-22T12:12:48.373Z,56.70
2023-05-22T12:15:20.274Z,56.00
2023-05-22T12:17:47.474Z,57.00
2023-05-22T12:20:14.863Z,55.70
2023-05-22T12:22:43.564Z,56.60
2023-05-22T12:25:17.718Z,55.90
2023-05-22T12:27:46.132Z,56.00
2023-05-22T12:30:14.281Z,54.20
2023-05-22T12:32:46.904Z,54.20
2023-05-22T12:35:17.609Z,50.80
2023-05-22T12:37:51.869Z,52.00
2023-05-22T12:40:19.384Z,52.70
2023-05-22T12:42:47.858Z,53.30
2023-05-22T12:45:15.196Z,53.90
2023-05-22T12:47:42.390Z,54.10
2023-05-22T12:50:09.874Z,56.10
2023-05-22T12:52:36.958Z,54.90
2023-05-22T12:55:04.786Z,54.20
2023-05-22T12:57:31.828Z,57.00
2023-05-22T12:59:58.863Z,52.90
2023-05-22T13:02:26.241Z,54.40
2023-05-22T13:04:53.406Z,52.10
2023-05-22T13:07:20.747Z,54.00
2023-05-22T13:09:47.886Z,54.00
2023-05-22T13:12:15.105Z,55.40
2023-05-22T13:14:42.198Z,51.90
2023-05-22T13:17:09.397Z,49.80
2023-05-22T13:19:36.872Z,51.00
2023-05-22T13:22:05.063Z,53.50
2023-05-22T13:24:32.247Z,50.30
2023-05-22T13:26:59.449Z,51.50
2023-05-22T13:29:26.528Z,51.40
2023-05-22T13:31:53.681Z,53.70
2023-05-22T13:34:20.960Z,52.10
2023-05-22T13:36:48.270Z,53.20
2023-05-22T13:39:15.485Z,53.00
2023-05-22T13:41:42.666Z,50.10
2023-05-22T13:44:11.157Z,52.20
2023-05-22T13:46:40.604Z,50.40
2023-05-22T13:49:08.133Z,51.10
2023-05-22T13:51:35.312Z,51.60
2023-05-22T13:54:03.480Z,52.70
2023-05-22T13:56:30.711Z,50.10
2023-05-22T13:58:58.060Z,52.00
2023-05-22T14:01:25.199Z,54.70
2023-05-22T14:03:52.364Z,49.30
2023-05-22T14:06:19.456Z,49.80
2023-05-22T14:08:46.704Z,52.10
2023-05-22T14:11:13.786Z,54.30
2023-05-22T14:13:40.888Z,52.90
2023-05-22T14:16:08.149Z,53.00
2023-05-22T14:18:35.354Z,52.10
2023-05-22T14:21:04.671Z,53.70
2023-05-22T14:23:32.204Z,54.20
2023-05-22T14:25:59.316Z,54.40
2023-05-22T14:28:26.929Z,52.00
2023-05-22T14:30:54.069Z,53.90
2023-05-22T14:33:21.195Z,54.70
2023-05-22T14:35:48.849Z,52.50
2023-05-22T14:38:16.016Z,51.50
2023-05-22T14:40:43.261Z,51.00
2023-05-22T14:43:10.734Z,52.00
2023-05-22T14:45:37.919Z,53.20
2023-05-22T14:48:05.349Z,51.70
2023-05-22T14:50:32.620Z,55.90
2023-05-22T14:52:59.661Z,54.20
2023-05-22T14:55:28.370Z,52.40
2023-05-22T14:57:55.981Z,52.00
2023-05-22T15:00:25.285Z,54.20
2023-05-22T15:02:52.497Z,54.50
2023-05-22T15:05:19.755Z,53.80
2023-05-22T15:07:48.389Z,51.40
2023-05-22T15:10:17.082Z,51.60
2023-05-22T15:12:44.323Z,54.00
2023-05-22T15:15:11.907Z,55.10
2023-05-22T15:17:40.752Z,54.90
2023-05-22T15:20:11.670Z,55.20
2023-05-22T15:22:39.438Z,55.50
2023-05-22T15:25:08.616Z,55.50
2023-05-22T15:27:36.236Z,55.00
2023-05-22T15:30:10.065Z,54.20
2023-05-22T15:32:38.194Z,53.70
2023-05-22T15:35:06.812Z,55.50
2023-05-22T15:37:34.395Z,55.30
2023-05-22T15:40:02.214Z,55.10
2023-05-22T15:42:29.981Z,55.10
2023-05-22T15:44:59.041Z,54.60
2023-05-22T15:47:27.224Z,56.20
2023-05-22T15:49:54.307Z,56.80
2023-05-22T15:52:23.560Z,57.30
2023-05-22T15:54:50.692Z,57.00
2023-05-22T15:57:19.763Z,57.60
2023-05-22T15:59:51.075Z,57.30
2023-05-22T16:02:19.585Z,58.30
2023-05-22T16:04:47.282Z,53.60
2023-05-22T16:07:14.460Z,54.60
2023-05-22T16:09:43.522Z,58.40
2023-05-22T16:12:11.810Z,57.90
2023-05-22T16:14:40.229Z,57.90
2023-05-22T16:17:07.576Z,58.00
2023-05-22T16:19:34.975Z,58.50
2023-05-22T16:22:03.097Z,57.90
2023-05-22T16:24:30.213Z,57.00
2023-05-22T16:26:59.437Z,58.20
2023-05-22T16:29:26.828Z,60.00
2023-05-22T16:31:53.907Z,61.30
2023-05-22T16:34:21.028Z,62.40
2023-05-22T16:36:48.079Z,62.00
2023-05-22T16:39:15.898Z,63.60
2023-05-22T16:41:42.954Z,65.80
2023-05-22T16:44:10.016Z,68.00
2023-05-22T16:46:37.063Z,66.90
2023-05-22T16:49:04.252Z,66.50
2023-05-22T16:51:31.383Z,65.40
2023-05-22T16:53:58.927Z,65.70
2023-05-22T16:56:26.579Z,66.30
2023-05-22T16:58:53.972Z,67.00
2023-05-22T17:01:21.851Z,68.20
2023-05-22T17:03:49.328Z,69.10
2023-05-22T17:06:17.832Z,71.00
2023-05-22T17:08:46.092Z,70.40
2023-05-22T17:11:13.153Z,71.20
2023-05-22T17:13:40.229Z,71.10
2023-05-22T17:16:07.264Z,71.60
2023-05-22T17:18:34.341Z,70.70
2023-05-22T17:21:01.610Z,70.60
2023-05-22T17:23:28.821Z,70.50
2023-05-22T17:25:55.986Z,70.90
2023-05-22T17:28:25.388Z,69.90
2023-05-22T17:30:52.637Z,70.00
2023-05-22T17:33:19.811Z,70.30
2023-05-22T17:35:48.373Z,70.30
2023-05-22T17:38:15.754Z,71.00
2023-05-22T17:40:45.692Z,72.10
2023-05-22T17:43:16.730Z,73.00
2023-05-22T17:45:49.794Z,72.50
2023-05-22T17:48:27.350Z,74.00
2023-05-22T17:50:54.855Z,74.80
2023-05-22T17:53:27.188Z,76.20
2023-05-22T17:55:55.216Z,77.30
2023-05-22T17:58:30.166Z,78.10
2023-05-22T18:00:57.922Z,79.10
2023-05-22T18:03:26.590Z,80.00
2023-05-22T18:05:53.973Z,80.80
2023-05-22T18:08:22.143Z,81.60
2023-05-22T18:10:50.197Z,81.80
2023-05-22T18:13:20.053Z,81.90
2023-05-22T18:15:48.445Z,83.00
2023-05-22T18:18:16.901Z,83.00
2023-05-22T18:20:46.427Z,83.30
2023-05-22T18:23:15.208Z,83.50
2023-05-22T18:25:42.896Z,84.30
2023-05-22T18:28:13.221Z,84.60
2023-05-22T18:30:41.545Z,84.90
2023-05-22T18:33:12.828Z,85.20
2023-05-22T18:35:39.994Z,85.40
2023-05-22T18:38:08.068Z,85.80
2023-05-22T18:40:35.450Z,85.60
2023-05-22T18:43:02.585Z,85.60
2023-05-22T18:45:29.670Z,86.10
2023-05-22T18:47:57.963Z,86.90
2023-05-22T18:50:25.380Z,86.70
2023-05-22T18:52:52.466Z,86.50
2023-05-22T18:55:19.831Z,86.80
2023-05-22T18:57:46.958Z,87.00
2023-05-22T19:00:14.400Z,87.40
2023-05-22T19:02:41.584Z,87.80
2023-05-22T19:05:09.209Z,88.50
2023-05-22T19:07:36.395Z,89.00
2023-05-22T19:10:05.492Z,89.40
2023-05-22T19:12:34.261Z,89.90
2023-05-22T19:15:01.315Z,90.00
2023-05-22T19:17:28.551Z,90.30
2023-05-22T19:19:55.910Z,90.70
2023-05-22T19:22:24.323Z,91.00
2023-05-22T19:24:52.507Z,91.10
2023-05-22T19:27:19.600Z,91.20
2023-05-22T19:29:46.758Z,91.70
2023-05-22T19:32:14.401Z,92.00
2023-05-22T19:34:47.641Z,92.20
2023-05-22T19:37:14.745Z,92.30
2023-05-22T19:39:41.749Z,92.50
2023-05-22T19:42:10.890Z,92.50
2023-05-22T19:44:37.937Z,92.70
2023-05-22T19:47:05.237Z,92.90
2023-05-22T19:49:36.838Z,93.00
2023-05-22T19:52:06.810Z,93.20
2023-05-22T19:54:34.439Z,93.10
2023-05-22T19:57:02.362Z,93.20
2023-05-22T19:59:29.385Z,93.10
2023-05-22T20:01:56.483Z,93.20
2023-05-22T20:04:23.669Z,93.10
2023-05-22T20:06:50.971Z,92.90
2023-05-22T20:09:19.018Z,92.90
2023-05-22T20:11:46.255Z,92.80
2023-05-22T20:14:13.681Z,92.90
2023-05-22T20:16:40.809Z,93.00
2023-05-22T20:19:09.319Z,93.20
2023-05-22T20:21:36.725Z,93.20
2023-05-22T20:24:12.327Z,93.60
2023-05-22T20:26:39.349Z,93.80
2023-05-22T20:29:06.562Z,93.90
2023-05-22T20:31:33.619Z,94.00
2023-05-22T20:34:06.393Z,94.10
2023-05-22T20:36:33.401Z,94.10
2023-05-22T20:39:00.486Z,94.20
2023-05-22T20:41:27.949Z,94.30
2023-05-22T20:43:54.994Z,94.40
2023-05-22T20:46:27.961Z,94.40
2023-05-22T20:48:55.086Z,94.60
2023-05-22T20:51:22.337Z,94.80
2023-05-22T20:53:52.647Z,94.90
2023-05-22T20:56:19.658Z,95.00
2023-05-22T20:58:48.818Z,95.10
2023-05-22T21:01:15.996Z,95.30
2023-05-22T21:03:43.075Z,95.30
2023-05-22T21:06:21.695Z,95.40
2023-05-22T21:08:50.148Z,95.50
2023-05-22T21:11:18.775Z,95.60
2023-05-22T21:13:45.818Z,95.70
2023-05-22T21:16:12.934Z,95.80
2023-05-22T21:18:40.140Z,95.90
2023-05-22T21:21:07.208Z,96.10
2023-05-22T21:23:34.249Z,96.30
2023-05-22T21:26:02.413Z,96.50
2023-05-22T21:28:29.591Z,96.60
2023-05-22T21:30:56.712Z,97.10
2023-05-22T21:33:23.774Z,96.80
2023-05-22T21:35:52.896Z,97.10
2023-05-22T21:38:19.923Z,97.30
2023-05-22T21:40:46.995Z,97.60
2023-05-22T21:43:15.032Z,97.50
2023-05-22T21:45:42.122Z,97.50
2023-05-22T21:48:10.167Z,97.50
2023-05-22T21:50:37.180Z,97.40
2023-05-22T21:53:04.278Z,97.30
2023-05-22T21:55:31.439Z,97.30
2023-05-22T21:57:59.481Z,97.30
2023-05-22T22:00:28.637Z,97.40
2023-05-22T22:02:57.606Z,97.50
2023-05-22T22:05:27.656Z,97.60
2023-05-22T22:07:54.697Z,97.80
2023-05-22T22:10:22.369Z,97.90
2023-05-22T22:12:49.882Z,98.10
2023-05-22T22:15:17.296Z,98.30
2023-05-22T22:17:44.385Z,98.40
2023-05-22T22:20:11.778Z,98.70
2023-05-22T22:22:40.391Z,98.80
2023-05-22T22:25:07.900Z,99.00
2023-05-22T22:27:34.949Z,99.50
2023-05-22T22:30:03.498Z,99.70
2023-05-22T22:32:30.636Z,99.40
2023-05-22T22:34:59.782Z,99.50
2023-05-22T22:37:26.815Z,99.60
2023-05-22T22:39:53.851Z,99.80
2023-05-22T22:42:21.948Z,99.90
2023-05-22T22:44:48.992Z,99.90
2023-05-22T22:47:16.020Z,99.90
2023-05-22T22:49:44.174Z,99.90
2023-05-22T22:52:11.184Z,99.90
2023-05-22T22:54:38.373Z,99.90
2023-05-22T22:57:05.628Z,99.90
2023-05-22T22:59:33.826Z,99.90
2023-05-22T23:02:01.096Z,99.90
2023-05-22T23:04:28.440Z,99.90
2023-05-22T23:06:57.674Z,99.90
2023-05-22T23:09:25.099Z,99.90
2023-05-22T23:11:52.258Z,99.90
2023-05-22T23:14:20.491Z,99.90
2023-05-22T23:16:47.544Z,99.90
2023-05-22T23:19:14.751Z,99.90
2023-05-22T23:21:41.874Z,99.90
2023-05-22T23:24:10.205Z,99.90
2023-05-22T23:26:37.315Z,99.90
2023-05-22T23:29:04.371Z,99.90
2023-05-22T23:31:31.955Z,99.90
2023-05-22T23:33:59.431Z,99.90
2023-05-22T23:36:26.625Z,99.90
2023-05-22T23:38:53.709Z,99.90
2023-05-22T23:41:20.814Z,99.90
2023-05-22T23:43:47.990Z,99.90
2023-05-22T23:46:15.107Z,99.90
2023-05-22T23:48:43.066Z,99.90
2023-05-22T23:51:14.664Z,99.90
2023-05-22T23:53:42.531Z,99.90
2023-05-22T23:56:10.297Z,99.90
2023-05-22T23:58:37.930Z,99.90
